createdAt,value
2022-10-01T00:07:26.136Z,100167.13
2022-10-01T00:17:29.061Z,100140.44
2022-10-01T00:27:33.571Z,100108.69
2022-10-01T00:37:37.832Z,100100.84
2022-10-01T00:47:44.428Z,100106.78
2022-10-01T00:57:47.736Z,100111.88
2022-10-01T01:07:54.431Z,100127.38
2022-10-01T01:18:05.671Z,100075.88
2022-10-01T01:28:21.150Z,100001.16
2022-10-01T01:38:28.063Z,99910.91
2022-10-01T01:48:36.480Z,100027.03
2022-10-01T01:58:40.414Z,100007.28
2022-10-01T02:08:50.936Z,100022.81
2022-10-01T02:19:01.609Z,100008.09
2022-10-01T02:29:09.639Z,100003.88
2022-10-01T02:39:16.944Z,99982.28
2022-10-01T02:49:21.562Z,99981.34
2022-10-01T02:59:24.563Z,99964.06
2022-10-01T03:09:28.845Z,99968.22
2022-10-01T03:19:31.821Z,99954.41
2022-10-01T03:29:36.245Z,99962.03
2022-10-01T03:39:39.349Z,99960.19
2022-10-01T03:49:43.622Z,99956.63
2022-10-01T03:59:46.573Z,99958.19
2022-10-01T04:09:51.129Z,99970.03
2022-10-01T04:19:54.103Z,99972.34
2022-10-01T04:29:58.431Z,99987.63
2022-10-01T04:40:01.610Z,99992.63
2022-10-01T04:50:06.691Z,99987.31
2022-10-01T05:00:11.054Z,99994.72
2022-10-01T05:10:18.944Z,100012.75
2022-10-01T05:20:23.902Z,100020.41
2022-10-01T05:30:28.468Z,100038.44
2022-10-01T05:40:31.685Z,100058.13
2022-10-01T05:50:40.279Z,100069.19
2022-10-01T06:00:44.027Z,100070.84
2022-10-01T06:10:48.767Z,100081.28
2022-10-01T06:20:51.792Z,100094.41
2022-10-01T06:30:56.103Z,100107.00
2022-10-01T06:41:00.972Z,100114.53
2022-10-01T06:51:05.945Z,100135.63
2022-10-01T07:01:08.750Z,100128.94
2022-10-01T07:11:13.975Z,100133.81
2022-10-01T07:21:17.121Z,100139.16
2022-10-01T07:31:23.535Z,100138.94
2022-10-01T07:41:26.470Z,100169.38
2022-10-01T07:51:31.150Z,100195.59
2022-10-01T08:01:34.402Z,100206.06
2022-10-01T08:11:38.963Z,100224.78
2022-10-01T08:21:42.249Z,100231.72
2022-10-01T08:31:46.700Z,100252.97
2022-10-01T08:41:56.409Z,100250.28
2022-10-01T08:52:05.052Z,100256.22
2022-10-01T09:02:26.574Z,100261.53
2022-10-01T09:12:42.767Z,100266.00
2022-10-01T09:22:55.221Z,100285.22
2022-10-01T09:33:04.949Z,100287.31
2022-10-01T09:43:09.202Z,100286.47
2022-10-01T09:53:19.311Z,100279.66
2022-10-01T10:03:27.388Z,100287.41
2022-10-01T10:13:35.235Z,100297.31
2022-10-01T10:23:48.661Z,100324.22
2022-10-01T10:33:57.493Z,100323.63
2022-10-01T10:44:04.490Z,100332.41
2022-10-01T10:54:20.100Z,100365.41
2022-10-01T11:04:30.621Z,100374.50
2022-10-01T11:14:48.999Z,100401.50
2022-10-01T11:25:17.398Z,100395.84
2022-10-01T11:35:37.393Z,100419.63
2022-10-01T11:45:47.120Z,100426.09
2022-10-01T11:56:15.028Z,100423.25
2022-10-01T12:06:24.476Z,100446.75
2022-10-01T12:16:44.796Z,100465.22
2022-10-01T12:27:03.570Z,100469.69
2022-10-01T12:37:21.848Z,100485.66
2022-10-01T12:47:38.550Z,100506.91
2022-10-01T12:57:57.029Z,100529.13
2022-10-01T13:08:34.302Z,100524.75
2022-10-01T13:18:52.265Z,100538.81
2022-10-01T13:29:20.699Z,100556.22
2022-10-01T13:39:28.012Z,100594.03
2022-10-01T13:49:34.743Z,100586.03
2022-10-01T13:59:39.828Z,100598.75
2022-10-01T14:09:46.860Z,100604.44
2022-10-01T14:19:52.068Z,100629.69
2022-10-01T14:30:05.246Z,100642.53
2022-10-01T14:40:18.778Z,100660.03
2022-10-01T14:50:22.446Z,100671.25
2022-10-01T15:00:29.704Z,100685.22
2022-10-01T15:10:32.823Z,100687.50
2022-10-01T15:20:37.730Z,100698.56
2022-10-01T15:30:41.378Z,100724.34
2022-10-01T15:40:49.027Z,100740.22
2022-10-01T15:51:01.425Z,100762.72
2022-10-01T16:01:10.243Z,100768.41
2022-10-01T16:11:20.565Z,100788.44
2022-10-01T16:21:25.177Z,100790.72
2022-10-01T16:31:28.580Z,100808.69
2022-10-01T16:41:34.486Z,100822.06
2022-10-01T16:51:42.452Z,100841.56
2022-10-01T17:01:51.197Z,100871.59
2022-10-01T17:11:58.307Z,100876.50
2022-10-01T17:22:03.289Z,100888.31
2022-10-01T17:32:06.458Z,100905.19
2022-10-01T17:42:11.011Z,100924.59
2022-10-01T17:52:14.107Z,100942.22
2022-10-01T18:02:40.341Z,100962.50
2022-10-01T18:12:42.103Z,100973.22
2022-10-01T18:22:46.471Z,100983.78
2022-10-01T18:32:57.004Z,100999.47
2022-10-01T18:43:09.816Z,101018.50
2022-10-01T18:53:26.792Z,101034.13
2022-10-01T19:04:00.252Z,101047.16
2022-10-01T19:14:19.763Z,101056.78
2022-10-01T19:24:53.326Z,101062.06
2022-10-01T19:35:05.385Z,101066.41
2022-10-01T19:45:24.196Z,101080.25
2022-10-01T19:55:35.060Z,101098.38
2022-10-01T20:05:48.208Z,101110.41
2022-10-01T20:16:00.911Z,101117.31
2022-10-01T20:26:14.987Z,101117.31
2022-10-01T20:36:24.925Z,101135.41
2022-10-01T20:46:34.981Z,101151.75
2022-10-01T20:56:42.928Z,101162.06
2022-10-01T21:06:49.962Z,101174.13
2022-10-01T21:17:17.501Z,101180.16
2022-10-01T21:27:47.969Z,101190.53
2022-10-01T21:38:01.231Z,101191.44
2022-10-01T21:48:21.176Z,101203.47
2022-10-01T21:58:38.678Z,101210.34
2022-10-01T22:09:01.954Z,101226.75
2022-10-01T22:19:10.974Z,101234.53
2022-10-01T22:29:19.404Z,101245.78
2022-10-01T22:39:24.714Z,101257.84
2022-10-01T22:49:39.916Z,101257.00
2022-10-01T22:59:49.305Z,101261.34
2022-10-01T23:10:01.927Z,101267.34
2022-10-01T23:20:20.531Z,101263.03
2022-10-01T23:30:24.793Z,101254.38
2022-10-01T23:40:33.777Z,101279.41
2022-10-01T23:50:42.778Z,101281.13
